Ana Sayfa
METAR-TAF:

METAR-TAF

Havaalanları :

Bahreyn, Bahreyn

Enlem: 26-16N, Boylam: 050-39E, yükseklik: 2 m

Güncel hava durumu gözlemi

Rapor saat 22:30 UTC de 38 dakika önce yapıldı.
Rüzgar kuzey/kuzeybatıdan 8 kt
Sıcaklık 25°C
Nem 61%
Basınç 1007 hPa
Görüş mesafesi 10 km veya daha fazla
1500 m altında bulut yok ve kümülonimbus yok

METAR: OBBI 202230Z 34008KT CAVOK 25/17 Q1007 NOSIG

Saat: 02:08 (23:08 UTC)

Tahmin

Rapor saat 17:00 UTC de 6 saat ve 8 dakika önce yapıldı.
Ayın 20'si saat 18 UTC'den ayın 22'si saat 00 UTC'ye kadar geçerli Tahmin
Rüzgar kuzeydan 12 kt
Görüş mesafesi: 8000 m
Dönüşüyor
ayın 21'si saat 16 UTC'den ayın 21'si saat 18 UTC'ye kadar
Rüzgar doğu/güneydoğudan 8 kt

TAF: OBBI 201700Z 2018/2200 36012KT 8000 NSC BECMG 2116/2118 12008KT

4.000'den fazla havaalanı için hava durumu gözlemleri ve tahminleri (METAR ve TAF raporları).

Kullanılabilir istasyonlar harita üzerinde sarı ve kırmızı noktalarla gösterilir.

İstasyonun adını görmek için fareyi noktanın üzerinde gezdirin.

Sonrasında hava gözlem ve tahminlerini görmek için tıklayın.

Haritayı değiştirmek için: yaklaştırmak için siyah artı işaretli yeşil düğmeye ve uzaklaştırmak için de eksi işaretli düğmeye hızla tıklayın; bitişik haritalar için yeşil okları kullanın.


METAR-TAF: